Aviation Digital Data Service (ADDS)

Output produced by METARs form (1117 UTC 24 October 2014)
found at http://aviationweather.gov/adds/metars/
 
KGMU 240544Z 2406/2506 02003KT P6SM SCT180 BKN250 
     FM241500 22005KT P6SM SCT160